Time,TemperatureF,DewpointF,PressureIn,WindDirection,WindDirectionDegrees,WindSpeedMPH,WindSpeedGustMPH,Humidity,HourlyPrecipIn,Conditions,Clouds,dailyrainin,SoftwareType,DateUTC
2013-01-10 00:00:00,33.6,32.8,29.99,NW,304,0.0,0.0,97,0.00,,,1.24,Wunderground v.1.15,2013-01-10 08:00:00,
2013-01-10 00:10:00,33.4,32.6,29.99,NW,304,0.0,0.0,97,0.00,,,0.00,Wunderground v.1.15,2013-01-10 08:10:00,
2013-01-10 00:20:00,33.3,32.5,29.99,NW,304,0.0,0.0,97,0.00,,,0.00,Wunderground v.1.15,2013-01-10 08:20:00,
2013-01-10 00:30:00,33.3,32.5,29.99,NW,304,0.0,0.0,97,0.00,,,0.00,Wunderground v.1.15,2013-01-10 08:30:00,
2013-01-10 00:40:00,33.3,32.5,29.99,NW,304,0.0,0.0,97,0.00,,,0.00,Wunderground v.1.15,2013-01-10 08:40:00,
2013-01-10 00:50:00,33.4,32.6,29.99,NW,304,0.0,0.0,97,0.00,,,0.00,Wunderground v.1.15,2013-01-10 08:50:00,
2013-01-10 01:00:00,33.5,32.7,29.99,NW,304,0.0,0.0,97,0.00,,,0.00,Wunderground v.1.15,2013-01-10 09:00:00,
2013-01-10 01:10:00,33.7,32.9,29.99,NW,304,0.0,0.0,97,0.00,,,0.00,Wunderground v.1.15,2013-01-10 09:10:00,
2013-01-10 01:20:00,33.9,33.1,30.00,NW,304,0.0,0.0,97,0.00,,,0.00,Wunderground v.1.15,2013-01-10 09:20:00,
2013-01-10 01:30:00,34.0,33.2,30.00,NW,304,0.0,0.0,97,0.00,,,0.00,Wunderground v.1.15,2013-01-10 09:30:00,
2013-01-10 01:40:00,34.2,33.7,30.00,NW,304,0.0,0.0,98,0.00,,,0.00,Wunderground v.1.15,2013-01-10 09:40:00,
2013-01-10 01:50:00,34.4,33.9,30.00,NW,304,0.0,0.0,98,0.00,,,0.00,Wunderground v.1.15,2013-01-10 09:50:00,
2013-01-10 02:00:00,34.4,33.6,30.01,NW,304,0.0,0.0,97,0.00,,,0.00,Wunderground v.1.15,2013-01-10 10:00:00,
2013-01-10 02:10:00,34.4,33.6,30.01,NW,304,0.0,0.0,97,0.00,,,0.01,Wunderground v.1.15,2013-01-10 10:10:00,
2013-01-10 02:20:00,34.4,33.6,30.01,NW,304,0.0,0.0,97,0.00,,,0.01,Wunderground v.1.15,2013-01-10 10:20:00,
2013-01-10 02:30:00,34.4,33.6,30.02,NW,304,0.0,0.0,97,0.00,,,0.01,Wunderground v.1.15,2013-01-10 10:30:00,
2013-01-10 02:40:00,34.4,33.6,30.02,NW,304,0.0,0.0,97,0.00,,,0.01,Wunderground v.1.15,2013-01-10 10:40:00,
2013-01-10 02:50:00,34.5,33.7,30.02,NW,304,0.0,0.0,97,0.00,,,0.01,Wunderground v.1.15,2013-01-10 10:50:00,
2013-01-10 03:00:00,34.4,33.6,30.02,NW,304,0.0,0.0,97,0.00,,,0.01,Wunderground v.1.15,2013-01-10 11:00:00,
2013-01-10 03:10:00,34.4,33.6,30.03,NW,304,0.0,0.0,97,0.00,,,0.01,Wunderground v.1.15,2013-01-10 11:10:00,
2013-01-10 03:20:00,34.4,33.6,30.03,NW,304,0.0,0.0,97,0.00,,,0.01,Wunderground v.1.15,2013-01-10 11:20:00,
2013-01-10 03:30:00,34.4,33.6,30.02,NW,304,0.0,0.0,97,0.00,,,0.01,Wunderground v.1.15,2013-01-10 11:30:00,
2013-01-10 03:40:00,34.4,33.6,30.03,NW,309,0.0,0.0,97,0.00,,,0.01,Wunderground v.1.15,2013-01-10 11:40:00,
2013-01-10 03:50:00,34.1,33.3,30.03,NW,309,0.0,0.0,97,0.00,,,0.01,Wunderground v.1.15,2013-01-10 11:50:00,
2013-01-10 04:00:00,33.8,33.0,30.03,NW,309,0.0,0.0,97,0.00,,,0.01,Wunderground v.1.15,2013-01-10 12:00:00,
2013-01-10 04:10:00,33.3,32.5,30.03,NW,309,0.0,0.0,97,0.00,,,0.01,Wunderground v.1.15,2013-01-10 12:10:00,
2013-01-10 04:20:00,33.1,32.3,30.03,NW,309,0.0,0.0,97,0.00,,,0.01,Wunderground v.1.15,2013-01-10 12:20:00,
2013-01-10 04:30:00,33.0,32.2,30.03,NW,309,0.0,0.0,97,0.00,,,0.01,Wunderground v.1.15,2013-01-10 12:30:00,
2013-01-10 04:40:00,32.8,32.0,30.03,NW,309,0.0,0.0,97,0.00,,,0.01,Wunderground v.1.15,2013-01-10 12:40:00,
2013-01-10 04:50:00,32.7,31.9,30.03,NW,309,0.0,0.0,97,0.00,,,0.01,Wunderground v.1.15,2013-01-10 12:50:00,
2013-01-10 05:00:00,32.6,31.8,30.03,NW,309,0.0,0.0,97,0.00,,,0.01,Wunderground v.1.15,2013-01-10 13:00:00,
2013-01-10 05:10:00,32.4,31.6,30.03,NW,309,0.0,0.0,97,0.00,,,0.01,Wunderground v.1.15,2013-01-10 13:10:00,
2013-01-10 05:20:00,32.1,31.3,30.03,NW,309,0.0,0.0,97,0.00,,,0.01,Wunderground v.1.15,2013-01-10 13:20:00,
2013-01-10 05:30:00,32.0,31.2,30.04,NW,309,0.0,0.0,97,0.00,,,0.01,Wunderground v.1.15,2013-01-10 13:30:00,
2013-01-10 05:40:00,31.8,31.0,30.04,NW,309,0.0,0.0,97,0.00,,,0.01,Wunderground v.1.15,2013-01-10 13:40:00,
2013-01-10 05:50:00,31.7,30.9,30.04,NW,309,0.0,0.0,97,0.00,,,0.01,Wunderground v.1.15,2013-01-10 13:50:00,
2013-01-10 06:00:00,31.7,30.9,30.05,NW,309,0.0,0.0,97,0.00,,,0.01,Wunderground v.1.15,2013-01-10 14:00:00,
2013-01-10 06:10:00,31.6,30.8,30.05,NW,309,0.0,0.0,97,0.00,,,0.01,Wunderground v.1.15,2013-01-10 14:10:00,
2013-01-10 06:20:00,31.5,30.7,30.06,NW,309,0.0,0.0,97,0.00,,,0.01,Wunderground v.1.15,2013-01-10 14:20:00,
2013-01-10 06:30:00,31.4,30.6,30.06,NW,309,0.0,0.0,97,0.00,,,0.01,Wunderground v.1.15,2013-01-10 14:30:00,
2013-01-10 06:40:00,31.4,30.6,30.07,NW,309,0.0,0.0,97,0.00,,,0.01,Wunderground v.1.15,2013-01-10 14:40:00,
2013-01-10 06:50:00,31.2,30.4,30.07,NW,309,0.0,0.0,97,0.00,,,0.01,Wunderground v.1.15,2013-01-10 14:50:00,
2013-01-10 07:00:00,31.1,30.3,30.08,NW,309,0.0,0.0,97,0.00,,,0.01,Wunderground v.1.15,2013-01-10 15:00:00,
2013-01-10 07:10:00,31.1,30.3,30.08,NW,309,0.0,0.0,97,0.00,,,0.01,Wunderground v.1.15,2013-01-10 15:10:00,
2013-01-10 07:20:00,31.0,30.2,30.08,NW,309,0.0,0.0,97,0.00,,,0.01,Wunderground v.1.15,2013-01-10 15:20:00,
2013-01-10 07:30:00,31.0,30.2,30.08,NW,309,0.0,0.0,97,0.00,,,0.01,Wunderground v.1.15,2013-01-10 15:30:00,
2013-01-10 07:40:00,31.0,30.2,30.09,NW,309,0.0,0.0,97,0.00,,,0.01,Wunderground v.1.15,2013-01-10 15:40:00,
2013-01-10 07:50:00,31.0,30.2,30.09,NW,309,0.0,0.0,97,0.00,,,0.01,Wunderground v.1.15,2013-01-10 15:50:00,
2013-01-10 08:00:00,31.0,30.2,30.10,NW,309,0.0,0.0,97,0.00,,,0.01,Wunderground v.1.15,2013-01-10 16:00:00,
2013-01-10 08:10:00,31.0,30.2,30.10,NW,309,0.0,0.0,97,0.00,,,0.01,Wunderground v.1.15,2013-01-10 16:10:00,
2013-01-10 08:20:00,31.1,30.3,30.10,NW,309,0.0,0.0,97,0.00,,,0.01,Wunderground v.1.15,2013-01-10 16:20:00,
2013-01-10 08:30:00,31.1,30.3,30.11,NW,309,0.0,0.0,97,0.00,,,0.01,Wunderground v.1.15,2013-01-10 16:30:00,
2013-01-10 08:40:00,31.2,30.4,30.11,NW,309,0.0,0.0,97,0.00,,,0.01,Wunderground v.1.15,2013-01-10 16:40:00,
2013-01-10 08:50:00,31.3,30.5,30.11,NW,309,0.0,0.0,97,0.00,,,0.01,Wunderground v.1.15,2013-01-10 16:50:00,
2013-01-10 09:00:00,31.5,30.7,30.12,NW,309,0.0,0.0,97,0.00,,,0.01,Wunderground v.1.15,2013-01-10 17:00:00,
2013-01-10 09:10:00,31.6,30.8,30.11,NW,309,0.0,0.0,97,0.00,,,0.01,Wunderground v.1.15,2013-01-10 17:10:00,
2013-01-10 09:20:00,31.7,30.9,30.11,NW,309,0.0,0.0,97,0.00,,,0.01,Wunderground v.1.15,2013-01-10 17:20:00,
2013-01-10 09:30:00,31.9,31.4,30.11,NW,309,0.0,0.0,98,0.00,,,0.01,Wunderground v.1.15,2013-01-10 17:30:00,
2013-01-10 09:40:00,32.0,31.5,30.12,NW,309,0.0,0.0,98,0.00,,,0.01,Wunderground v.1.15,2013-01-10 17:40:00,
2013-01-10 09:50:00,32.2,31.4,30.12,NW,309,0.0,0.0,97,0.00,,,0.01,Wunderground v.1.15,2013-01-10 17:50:00,
2013-01-10 10:00:00,32.4,31.6,30.12,NW,309,0.0,0.0,97,0.00,,,0.01,Wunderground v.1.15,2013-01-10 18:00:00,
2013-01-10 10:10:00,32.6,32.1,30.12,NW,309,0.0,0.0,98,0.00,,,0.01,Wunderground v.1.15,2013-01-10 18:10:00,
2013-01-10 10:20:00,33.1,32.6,30.12,NW,309,0.0,0.0,98,0.00,,,0.01,Wunderground v.1.15,2013-01-10 18:20:00,
2013-01-10 10:30:00,33.3,32.8,30.12,NW,309,0.0,0.0,98,0.00,,,0.01,Wunderground v.1.15,2013-01-10 18:30:00,
2013-01-10 10:40:00,33.7,33.2,30.12,NW,309,0.0,0.0,98,0.00,,,0.02,Wunderground v.1.15,2013-01-10 18:40:00,
2013-01-10 10:50:00,34.0,33.5,30.12,NW,309,0.0,0.0,98,0.00,,,0.02,Wunderground v.1.15,2013-01-10 18:50:00,
2013-01-10 11:00:00,34.2,33.7,30.11,NW,309,0.0,0.0,98,0.00,,,0.02,Wunderground v.1.15,2013-01-10 19:00:00,
2013-01-10 11:10:00,34.4,33.9,30.11,NW,309,0.0,0.0,98,0.00,,,0.02,Wunderground v.1.15,2013-01-10 19:10:00,
2013-01-10 11:20:00,34.5,34.0,30.11,NW,309,0.0,0.0,98,0.00,,,0.02,Wunderground v.1.15,2013-01-10 19:20:00,
2013-01-10 11:30:00,34.9,34.4,30.11,NW,309,0.0,0.0,98,0.00,,,0.02,Wunderground v.1.15,2013-01-10 19:30:00,
2013-01-10 11:40:00,35.1,34.6,30.11,WSW,252,0.0,0.0,98,0.00,,,0.02,Wunderground v.1.15,2013-01-10 19:40:00,
2013-01-10 11:50:00,35.2,34.7,30.11,WSW,252,0.0,0.0,98,0.00,,,0.03,Wunderground v.1.15,2013-01-10 19:50:00,
2013-01-10 12:00:00,35.3,34.8,30.10,WSW,252,0.0,0.0,98,0.00,,,0.03,Wunderground v.1.15,2013-01-10 20:00:00,
2013-01-10 12:10:00,35.4,34.9,30.10,WSW,252,0.0,0.0,98,0.00,,,0.03,Wunderground v.1.15,2013-01-10 20:10:00,
2013-01-10 12:20:00,35.4,34.9,30.10,WSW,252,0.0,0.0,98,0.00,,,0.03,Wunderground v.1.15,2013-01-10 20:20:00,
2013-01-10 12:30:00,35.5,35.0,30.10,WSW,252,0.0,0.0,98,0.00,,,0.03,Wunderground v.1.15,2013-01-10 20:30:00,
2013-01-10 12:40:00,35.5,35.0,30.10,WSW,252,0.0,0.0,98,0.00,,,0.03,Wunderground v.1.15,2013-01-10 20:40:00,
2013-01-10 12:50:00,35.5,35.0,30.10,WSW,252,0.0,0.0,98,0.00,,,0.03,Wunderground v.1.15,2013-01-10 20:50:00,
2013-01-10 13:00:00,35.5,35.0,30.09,WSW,252,0.0,0.0,98,0.00,,,0.03,Wunderground v.1.15,2013-01-10 21:00:00,
2013-01-10 13:10:00,35.5,35.0,30.10,WSW,252,0.0,0.0,98,0.00,,,0.03,Wunderground v.1.15,2013-01-10 21:10:00,
2013-01-10 13:20:00,35.7,35.2,30.10,WSW,252,0.0,0.0,98,0.00,,,0.04,Wunderground v.1.15,2013-01-10 21:20:00,
2013-01-10 13:30:00,35.7,35.2,30.10,WSW,252,0.0,0.0,98,0.05,,,0.05,Wunderground v.1.15,2013-01-10 21:30:00,
2013-01-10 13:40:00,35.7,35.2,30.11,WSW,252,0.0,0.0,98,0.12,,,0.07,Wunderground v.1.15,2013-01-10 21:40:00,
2013-01-10 13:50:00,35.2,34.4,30.11,West,263,0.0,0.0,97,0.11,,,0.09,Wunderground v.1.15,2013-01-10 21:50:00,
2013-01-10 14:00:00,35.0,34.5,30.11,West,263,0.0,0.0,98,0.04,,,0.09,Wunderground v.1.15,2013-01-10 22:00:00,
2013-01-10 14:10:00,34.7,33.9,30.11,West,263,0.0,0.0,97,0.04,,,0.10,Wunderground v.1.15,2013-01-10 22:10:00,
2013-01-10 14:20:00,34.5,34.0,30.11,West,263,0.0,0.0,98,0.00,,,0.10,Wunderground v.1.15,2013-01-10 22:20:00,
2013-01-10 14:30:00,34.5,34.0,30.11,West,263,0.0,0.0,98,0.00,,,0.10,Wunderground v.1.15,2013-01-10 22:30:00,
2013-01-10 14:40:00,34.6,34.1,30.11,West,263,0.0,0.0,98,0.00,,,0.10,Wunderground v.1.15,2013-01-10 22:40:00,
2013-01-10 14:50:00,34.8,34.3,30.11,West,263,0.0,0.0,98,0.00,,,0.11,Wunderground v.1.15,2013-01-10 22:50:00,
2013-01-10 15:00:00,34.9,34.4,30.11,West,263,0.0,0.0,98,0.00,,,0.11,Wunderground v.1.15,2013-01-10 23:00:00,
2013-01-10 15:10:00,35.1,34.6,30.12,West,263,0.0,0.0,98,0.00,,,0.11,Wunderground v.1.15,2013-01-10 23:10:00,
2013-01-10 15:30:00,35.3,34.8,30.11,West,263,0.0,0.0,98,0.00,,,0.11,Wunderground v.1.15,2013-01-10 23:30:00,
2013-01-10 15:40:00,35.4,34.9,30.11,West,263,0.0,0.0,98,0.00,,,0.11,Wunderground v.1.15,2013-01-10 23:40:00,
2013-01-10 15:50:00,35.5,35.0,30.12,West,263,0.0,0.0,98,0.00,,,0.11,Wunderground v.1.15,2013-01-10 23:50:00,
2013-01-10 16:00:00,35.5,35.0,30.12,West,263,0.0,0.0,98,0.00,,,0.11,Wunderground v.1.15,2013-01-11 00:00:00,
2013-01-10 16:10:00,35.6,35.1,30.12,West,263,0.0,0.0,98,0.00,,,0.11,Wunderground v.1.15,2013-01-11 00:10:00,
2013-01-10 16:20:00,35.6,35.1,30.12,West,263,0.0,0.0,98,0.00,,,0.11,Wunderground v.1.15,2013-01-11 00:20:00,
2013-01-10 16:30:00,35.6,35.1,30.13,North,355,0.0,0.0,98,0.00,,,0.11,Wunderground v.1.15,2013-01-11 00:30:00,
2013-01-10 16:40:00,35.7,35.2,30.13,North,355,0.0,0.0,98,0.00,,,0.11,Wunderground v.1.15,2013-01-11 00:40:00,
2013-01-10 16:50:00,35.6,35.1,30.13,North,355,0.0,0.0,98,0.00,,,0.11,Wunderground v.1.15,2013-01-11 00:50:00,
2013-01-10 17:00:00,35.4,34.9,30.12,North,355,0.0,0.0,98,0.00,,,0.11,Wunderground v.1.15,2013-01-11 01:00:00,
2013-01-10 17:10:00,35.0,34.2,30.12,North,355,0.0,0.0,97,0.00,,,0.11,Wunderground v.1.15,2013-01-11 01:10:00,
2013-01-10 17:20:00,34.5,33.7,30.12,North,355,0.0,0.0,97,0.00,,,0.11,Wunderground v.1.15,2013-01-11 01:20:00,
2013-01-10 17:30:00,34.2,33.4,30.12,North,355,0.0,0.0,97,0.00,,,0.11,Wunderground v.1.15,2013-01-11 01:30:00,
2013-01-10 17:40:00,33.7,32.9,30.12,North,355,0.0,0.0,97,0.00,,,0.11,Wunderground v.1.15,2013-01-11 01:40:00,
2013-01-10 17:50:00,33.2,32.4,30.12,North,355,0.0,0.0,97,0.00,,,0.11,Wunderground v.1.15,2013-01-11 01:50:00,
2013-01-10 18:00:00,32.9,32.1,30.12,North,355,0.0,0.0,97,0.00,,,0.11,Wunderground v.1.15,2013-01-11 02:00:00,
2013-01-10 18:10:00,32.5,31.7,30.13,North,355,0.0,0.0,97,0.00,,,0.11,Wunderground v.1.15,2013-01-11 02:10:00,
2013-01-10 18:20:00,32.3,31.5,30.13,North,355,0.0,0.0,97,0.00,,,0.11,Wunderground v.1.15,2013-01-11 02:20:00,
2013-01-10 18:30:00,32.0,31.2,30.13,North,355,0.0,0.0,97,0.00,,,0.11,Wunderground v.1.15,2013-01-11 02:30:00,
2013-01-10 18:40:00,31.8,31.0,30.13,North,355,0.0,0.0,97,0.00,,,0.11,Wunderground v.1.15,2013-01-11 02:40:00,
2013-01-10 18:50:00,31.6,30.8,30.13,North,355,0.0,0.0,97,0.00,,,0.11,Wunderground v.1.15,2013-01-11 02:50:00,
2013-01-10 19:00:00,31.4,30.6,30.13,North,355,0.0,0.0,97,0.00,,,0.11,Wunderground v.1.15,2013-01-11 03:00:00,
2013-01-10 19:10:00,31.3,30.5,30.13,North,355,0.0,0.0,97,0.00,,,0.11,Wunderground v.1.15,2013-01-11 03:10:00,
2013-01-10 19:20:00,31.2,30.4,30.13,North,355,0.0,0.0,97,0.00,,,0.11,Wunderground v.1.15,2013-01-11 03:20:00,
2013-01-10 19:30:00,31.2,30.4,30.13,North,355,0.0,0.0,97,0.00,,,0.11,Wunderground v.1.15,2013-01-11 03:30:00,
2013-01-10 19:40:00,31.1,30.3,30.13,North,355,0.0,0.0,97,0.00,,,0.11,Wunderground v.1.15,2013-01-11 03:40:00,
2013-01-10 19:50:00,31.1,30.3,30.13,North,355,0.0,0.0,97,0.00,,,0.11,Wunderground v.1.15,2013-01-11 03:50:00,
2013-01-10 20:00:00,31.0,30.2,30.13,North,355,0.0,0.0,97,0.00,,,0.11,Wunderground v.1.15,2013-01-11 04:00:00,
2013-01-10 20:10:00,30.9,30.1,30.13,North,355,0.0,0.0,97,0.00,,,0.11,Wunderground v.1.15,2013-01-11 04:10:00,
2013-01-10 20:20:00,30.8,30.0,30.13,North,355,0.0,0.0,97,0.00,,,0.11,Wunderground v.1.15,2013-01-11 04:20:00,
2013-01-10 20:30:00,30.7,30.0,30.14,North,355,0.0,0.0,97,0.00,,,0.11,Wunderground v.1.15,2013-01-11 04:30:00,
2013-01-10 20:40:00,30.6,29.9,30.14,North,355,0.0,0.0,97,0.00,,,0.11,Wunderground v.1.15,2013-01-11 04:40:00,
2013-01-10 20:50:00,30.5,29.8,30.14,North,355,0.0,0.0,97,0.00,,,0.11,Wunderground v.1.15,2013-01-11 04:50:00,
2013-01-10 21:10:00,30.3,29.6,30.14,North,355,0.0,0.0,97,0.00,,,0.11,Wunderground v.1.15,2013-01-11 05:10:00,
2013-01-10 21:20:00,30.2,29.5,30.14,North,355,0.0,0.0,97,0.00,,,0.11,Wunderground v.1.15,2013-01-11 05:20:00,
2013-01-10 21:30:00,30.2,29.5,30.14,North,355,0.0,0.0,97,0.00,,,0.11,Wunderground v.1.15,2013-01-11 05:30:00,
2013-01-10 21:40:00,30.1,29.4,30.14,North,355,0.0,0.0,97,0.00,,,0.11,Wunderground v.1.15,2013-01-11 05:40:00,
2013-01-10 21:50:00,30.0,29.3,30.14,North,355,0.0,0.0,97,0.00,,,0.11,Wunderground v.1.15,2013-01-11 05:50:00,
2013-01-10 22:00:00,29.9,29.2,30.14,North,355,0.0,0.0,97,0.00,,,0.11,Wunderground v.1.15,2013-01-11 06:00:00,
2013-01-10 22:10:00,29.7,29.0,30.15,North,355,0.0,0.0,97,0.00,,,0.11,Wunderground v.1.15,2013-01-11 06:10:00,
2013-01-10 22:20:00,29.6,28.9,30.15,North,355,0.0,0.0,97,0.00,,,0.11,Wunderground v.1.15,2013-01-11 06:20:00,
2013-01-10 22:30:00,29.5,28.8,30.15,North,355,0.0,0.0,97,0.00,,,0.11,Wunderground v.1.15,2013-01-11 06:30:00,
2013-01-10 22:40:00,29.3,28.6,30.15,North,355,0.0,0.0,97,0.00,,,0.11,Wunderground v.1.15,2013-01-11 06:40:00,
2013-01-10 22:50:00,29.2,28.5,30.15,North,355,0.0,0.0,97,0.00,,,0.11,Wunderground v.1.15,2013-01-11 06:50:00,
2013-01-10 23:00:00,29.0,28.3,30.16,North,355,0.0,0.0,97,0.00,,,0.11,Wunderground v.1.15,2013-01-11 07:00:00,
2013-01-10 23:10:00,28.8,28.1,30.16,North,355,0.0,0.0,97,0.00,,,0.11,Wunderground v.1.15,2013-01-11 07:10:00,
2013-01-10 23:20:00,28.7,28.0,30.16,North,355,0.0,0.0,97,0.00,,,0.11,Wunderground v.1.15,2013-01-11 07:20:00,
2013-01-10 23:30:00,28.5,27.8,30.16,North,355,0.0,0.0,97,0.00,,,0.11,Wunderground v.1.15,2013-01-11 07:30:00,
2013-01-10 23:40:00,28.4,27.7,30.16,North,355,0.0,0.0,97,0.00,,,0.11,Wunderground v.1.15,2013-01-11 07:40:00,
2013-01-10 23:50:00,28.2,27.5,30.16,North,355,0.0,0.0,97,0.00,,,0.11,Wunderground v.1.15,2013-01-11 07:50:00,